createdAt,value
2022-11-28T00:08:05.161Z,48.10
2022-11-28T00:18:11.407Z,47.50
2022-11-28T00:28:16.998Z,46.50
2022-11-28T00:38:22.573Z,43.00
2022-11-28T00:48:28.267Z,39.90
2022-11-28T00:58:34.455Z,35.60
2022-11-28T01:08:40.430Z,32.90
2022-11-28T01:18:46.373Z,32.40
2022-11-28T01:28:51.963Z,29.70
2022-11-28T01:38:57.634Z,33.60
2022-11-28T01:49:08.475Z,34.30
2022-11-28T01:59:16.322Z,35.80
2022-11-28T02:09:22.360Z,36.10
2022-11-28T02:20:16.417Z,36.90
2022-11-28T02:30:29.606Z,38.10
2022-11-28T02:40:41.205Z,33.40
2022-11-28T02:50:54.307Z,34.10
2022-11-28T03:01:00.451Z,34.20
2022-11-28T03:11:14.734Z,30.40
2022-11-28T03:21:26.913Z,26.90
2022-11-28T03:31:40.328Z,33.60
2022-11-28T03:41:50.318Z,30.10
2022-11-28T03:51:58.821Z,30.30
2022-11-28T04:02:15.044Z,30.00
2022-11-28T04:12:31.974Z,30.50
2022-11-28T04:22:42.860Z,29.00
2022-11-28T04:32:51.522Z,28.10
2022-11-28T04:43:02.853Z,25.30
2022-11-28T04:53:13.966Z,27.60
2022-11-28T05:03:20.000Z,26.60
2022-11-28T05:13:25.588Z,28.80
2022-11-28T05:23:31.182Z,29.00
2022-11-28T05:33:36.783Z,31.70
2022-11-28T05:43:42.338Z,29.40
2022-11-28T05:53:47.947Z,30.90
2022-11-28T06:03:59.551Z,26.30
2022-11-28T06:14:05.986Z,28.20
2022-11-28T06:24:12.224Z,24.00
2022-11-28T06:34:17.853Z,26.10
2022-11-28T06:44:23.801Z,20.60
2022-11-28T06:54:29.802Z,22.50
2022-11-28T07:04:35.920Z,21.50
2022-11-28T07:14:41.746Z,20.40
2022-11-28T07:24:48.447Z,21.90
2022-11-28T07:34:54.046Z,19.70
2022-11-28T07:44:59.726Z,22.60
2022-11-28T07:55:05.765Z,19.50
2022-11-28T08:05:13.298Z,17.70
2022-11-28T08:15:19.101Z,17.20
2022-11-28T08:25:24.882Z,18.40
2022-11-28T08:35:30.537Z,18.80
2022-11-28T08:45:37.858Z,18.30
2022-11-28T08:55:45.373Z,20.00
2022-11-28T09:05:51.296Z,20.40
2022-11-28T09:15:57.364Z,18.40
2022-11-28T09:26:08.347Z,19.60
2022-11-28T09:36:16.101Z,19.70
2022-11-28T09:46:27.494Z,20.30
2022-11-28T09:56:33.317Z,19.10
2022-11-28T10:06:47.642Z,18.60
2022-11-28T10:17:05.469Z,19.20
2022-11-28T10:27:15.716Z,15.90
2022-11-28T10:37:25.719Z,16.10
2022-11-28T10:47:51.544Z,18.20
2022-11-28T10:58:06.152Z,15.00
2022-11-28T11:08:21.629Z,16.70
2022-11-28T11:18:29.677Z,13.50
2022-11-28T11:28:47.632Z,14.20
2022-11-28T11:39:00.943Z,15.70
2022-11-28T11:49:06.522Z,14.40
2022-11-28T11:59:16.939Z,14.60
2022-11-28T12:09:30.650Z,12.90
2022-11-28T12:19:45.936Z,14.30
2022-11-28T12:30:03.491Z,12.70
2022-11-28T12:40:21.192Z,12.60
2022-11-28T12:50:34.232Z,14.40
2022-11-28T13:00:50.709Z,15.40
2022-11-28T13:11:03.066Z,16.50
2022-11-28T13:21:19.177Z,17.70
2022-11-28T13:31:30.364Z,19.40
2022-11-28T13:42:13.927Z,19.30
2022-11-28T13:52:35.175Z,19.70
2022-11-28T14:02:47.147Z,21.00
2022-11-28T14:13:04.784Z,20.40
2022-11-28T14:23:22.529Z,20.00
2022-11-28T14:33:34.831Z,20.30
2022-11-28T14:43:43.903Z,17.80
2022-11-28T14:53:51.323Z,20.50
2022-11-28T15:04:01.199Z,20.20
2022-11-28T15:14:19.688Z,22.80
2022-11-28T15:24:31.926Z,21.00
2022-11-28T15:34:39.220Z,22.40
2022-11-28T15:44:45.612Z,21.40
2022-11-28T15:54:52.457Z,23.40
2022-11-28T16:05:06.538Z,25.20
2022-11-28T16:15:21.079Z,22.90
2022-11-28T16:25:28.564Z,21.90
2022-11-28T16:35:39.045Z,23.50
2022-11-28T16:45:45.468Z,23.50
2022-11-28T16:55:51.263Z,22.50
2022-11-28T17:05:57.010Z,22.90
2022-11-28T17:16:02.625Z,21.00
2022-11-28T17:26:08.543Z,21.50
2022-11-28T17:36:14.807Z,21.50
2022-11-28T17:46:21.568Z,20.90
2022-11-28T17:56:27.375Z,25.20
2022-11-28T18:06:33.657Z,22.80
2022-11-28T18:16:40.182Z,23.50
2022-11-28T18:26:46.518Z,26.10
2022-11-28T18:36:58.454Z,24.90
2022-11-28T18:47:04.493Z,22.10
2022-11-28T18:57:10.228Z,24.50
2022-11-28T19:07:15.933Z,22.20
2022-11-28T19:17:21.580Z,22.50
2022-11-28T19:27:27.184Z,22.80
2022-11-28T19:37:32.775Z,20.10
2022-11-28T19:47:38.554Z,20.60
2022-11-28T19:57:44.516Z,19.30
2022-11-28T20:07:53.229Z,20.80
2022-11-28T20:18:02.598Z,19.40
2022-11-28T20:28:08.360Z,22.00
2022-11-28T20:38:14.002Z,19.60
2022-11-28T20:48:20.009Z,22.40
2022-11-28T20:58:25.604Z,19.50
2022-11-28T21:08:31.469Z,19.90
2022-11-28T21:18:39.155Z,20.10
2022-11-28T21:28:46.720Z,20.00
2022-11-28T21:38:53.923Z,16.90
2022-11-28T21:48:59.551Z,18.40
2022-11-28T21:59:05.457Z,18.50
2022-11-28T22:09:11.754Z,21.00
2022-11-28T22:19:17.566Z,19.30
2022-11-28T22:29:23.398Z,19.80
2022-11-28T22:39:29.048Z,21.10
2022-11-28T22:49:35.045Z,19.80
2022-11-28T22:59:41.086Z,20.50
2022-11-28T23:09:46.978Z,21.00
2022-11-28T23:19:52.652Z,24.40
2022-11-28T23:29:58.373Z,24.40
2022-11-28T23:40:04.340Z,23.50
2022-11-28T23:50:11.923Z,19.00
